Time;durP1;ratioP1;P1;durP2;ratioP2;P2;SDS_P1;SDS_P2;PMS_P1;PMS_P2;Temp;Humidity;BMP_temperature;BMP_pressure;BME280_temperature;BME280_humidity;BME280_pressure;Samples;Min_cycle;Max_cycle;Signal;HPM_P1;HPM_P2
2023/07/03 00:01:21;;;;;;;;;;;24.70;50.00;;;;;;1618469;71;1520;-56
2023/07/03 00:03:23;;;;;;;;;;;24.70;49.90;;;;;;1608486;71;713;-57
2023/07/03 00:05:24;;;;;;;;;;;24.70;49.90;;;;;;1635133;71;778;-57
2023/07/03 00:07:26;;;;;;;;;;;24.70;50.00;;;;;;1639810;71;1935;-58
2023/07/03 00:09:28;;;;;;;;;;;24.70;49.90;;;;;;1644458;71;1114;-58
2023/07/03 00:11:30;;;;;;;;;;;24.80;49.80;;;;;;1627533;71;867;-57
2023/07/03 00:13:32;;;;;;;;;;;24.70;49.70;;;;;;1618934;71;727;-55
2023/07/03 00:15:34;;;;;;;;;;;24.60;49.70;;;;;;1644909;71;1536;-56
2023/07/03 00:17:44;;;;;;;;;;;24.60;49.80;;;;;;1644754;71;767;-58
2023/07/03 00:19:39;;;;;;;;;;;24.60;49.90;;;;;;1630141;71;1701;-56
2023/07/03 00:21:44;;;;;;;;;;;24.70;50.00;;;;;;1648472;71;750;-56
2023/07/03 00:23:46;;;;;;;;;;;24.70;49.90;;;;;;1615019;71;735;-58
2023/07/03 00:25:48;;;;;;;;;;;24.70;50.00;;;;;;1625098;71;692;-57
2023/07/03 00:27:50;;;;;;;;;;;24.60;49.80;;;;;;1623160;71;1940;-58
2023/07/03 00:29:52;;;;;;;;;;;24.70;50.10;;;;;;1621634;71;1549;-57
2023/07/03 00:31:54;;;;;;;;;;;24.70;50.10;;;;;;1622765;71;642;-57
2023/07/03 00:33:58;;;;;;;;;;;24.80;50.00;;;;;;1655972;71;732;-56
2023/07/03 00:35:59;;;;;;;;;;;24.60;50.20;;;;;;1627620;71;736;-56
2023/07/03 00:38:01;;;;;;;;;;;24.70;50.30;;;;;;1641385;71;1163;-54
2023/07/03 00:40:06;;;;;;;;;;;24.80;50.40;;;;;;1636509;71;693;-58
2023/07/03 00:42:07;;;;;;;;;;;24.70;50.20;;;;;;1620105;71;1525;-57
2023/07/03 00:44:12;;;;;;;;;;;24.70;50.40;;;;;;1632656;71;1541;-57
2023/07/03 00:46:14;;;;;;;;;;;24.60;50.20;;;;;;1639979;71;757;-56
2023/07/03 00:48:16;;;;;;;;;;;24.60;50.30;;;;;;1646759;71;1938;-54
2023/07/03 00:50:18;;;;;;;;;;;24.60;50.40;;;;;;1632335;71;722;-58
2023/07/03 00:52:20;;;;;;;;;;;24.60;50.30;;;;;;1615467;71;813;-57
2023/07/03 00:54:22;;;;;;;;;;;24.70;50.50;;;;;;1643488;71;784;-58
2023/07/03 00:56:24;;;;;;;;;;;24.70;50.20;;;;;;1626085;71;740;-56
2023/07/03 00:58:26;;;;;;;;;;;24.70;50.30;;;;;;1621087;71;1435;-58
2023/07/03 01:00:29;;;;;;;;;;;24.70;50.30;;;;;;1637633;71;584;-56
2023/07/03 01:02:34;;;;;;;;;;;24.70;50.50;;;;;;1633352;71;758;-57
2023/07/03 01:04:37;;;;;;;;;;;24.70;50.60;;;;;;1619803;71;2084;-55
2023/07/03 01:06:40;;;;;;;;;;;24.70;50.30;;;;;;1637248;71;1347;-57
2023/07/03 01:08:50;;;;;;;;;;;24.60;50.20;;;;;;1627602;71;1942;-56
2023/07/03 01:10:59;;;;;;;;;;;24.60;50.30;;;;;;1626141;71;1435;-56
2023/07/03 01:13:06;;;;;;;;;;;24.70;50.40;;;;;;1632811;71;2053;-57
2023/07/03 01:15:15;;;;;;;;;;;24.70;50.30;;;;;;1628536;71;715;-57
2023/07/03 01:17:24;;;;;;;;;;;24.80;50.10;;;;;;1629958;71;1690;-56
2023/07/03 01:19:33;;;;;;;;;;;24.80;50.30;;;;;;1612116;71;1793;-59
2023/07/03 01:21:55;;;;;;;;;;;24.80;50.20;;;;;;1619764;71;1672;-57
2023/07/03 01:24:04;;;;;;;;;;;24.80;50.20;;;;;;1639890;71;1627;-58
2023/07/03 01:26:10;;;;;;;;;;;24.80;50.20;;;;;;1616833;71;1609;-57
2023/07/03 01:28:20;;;;;;;;;;;24.80;50.00;;;;;;1614708;71;1930;-56
2023/07/03 01:30:28;;;;;;;;;;;24.80;50.20;;;;;;1627444;71;1627;-57
2023/07/03 01:32:38;;;;;;;;;;;24.80;50.00;;;;;;1614948;71;818;-59
2023/07/03 01:34:48;;;;;;;;;;;24.80;50.20;;;;;;1613822;71;1628;-56
2023/07/03 01:36:57;;;;;;;;;;;24.80;50.10;;;;;;1620986;71;1315;-56
2023/07/03 01:39:05;;;;;;;;;;;24.70;50.10;;;;;;1624748;71;1566;-58
2023/07/03 01:41:15;;;;;;;;;;;24.70;50.20;;;;;;1639850;71;1633;-59
2023/07/03 01:43:22;;;;;;;;;;;24.70;50.20;;;;;;1638901;71;1633;-58
2023/07/03 01:45:30;;;;;;;;;;;24.70;50.10;;;;;;1616292;71;1636;-58
2023/07/03 01:47:38;;;;;;;;;;;24.70;50.20;;;;;;1639733;71;1936;-56
2023/07/03 01:49:38;;;;;;;;;;;24.60;50.10;;;;;;1616496;71;1647;-59
2023/07/03 01:51:41;;;;;;;;;;;24.70;50.20;;;;;;1655292;71;781;-58
2023/07/03 01:53:45;;;;;;;;;;;24.70;50.40;;;;;;1611203;71;1644;-58
2023/07/03 01:55:55;;;;;;;;;;;24.60;50.00;;;;;;1646546;71;1566;-56
2023/07/03 01:58:05;;;;;;;;;;;24.80;50.20;;;;;;1618507;71;1109;-57
2023/07/03 02:00:10;;;;;;;;;;;24.70;50.20;;;;;;1625573;71;1797;-56
2023/07/03 02:02:12;;;;;;;;;;;24.70;50.00;;;;;;1636649;71;704;-55
2023/07/03 02:04:17;;;;;;;;;;;24.80;50.20;;;;;;1622259;71;746;-56
2023/07/03 02:06:24;;;;;;;;;;;24.80;50.20;;;;;;1645531;71;759;-55
2023/07/03 02:08:26;;;;;;;;;;;24.80;50.00;;;;;;1639143;70;1941;-56
2023/07/03 02:10:28;;;;;;;;;;;24.80;49.90;;;;;;1612515;71;664;-56
2023/07/03 02:12:30;;;;;;;;;;;24.80;50.00;;;;;;1634035;71;777;-57
2023/07/03 02:14:34;;;;;;;;;;;24.80;49.90;;;;;;1623125;71;740;-56
2023/07/03 02:16:36;;;;;;;;;;;24.80;50.00;;;;;;1633345;71;1760;-57
2023/07/03 02:18:37;;;;;;;;;;;24.80;50.00;;;;;;1627448;71;1155;-55
2023/07/03 02:20:39;;;;;;;;;;;24.70;50.20;;;;;;1605194;71;712;-59
2023/07/03 02:22:41;;;;;;;;;;;24.80;50.00;;;;;;1641889;71;1532;-56
2023/07/03 02:24:43;;;;;;;;;;;24.80;49.90;;;;;;1628814;71;697;-57
2023/07/03 02:26:45;;;;;;;;;;;24.80;49.90;;;;;;1625976;71;773;-56
2023/07/03 02:28:47;;;;;;;;;;;24.80;49.90;;;;;;1650851;70;1914;-56
2023/07/03 02:30:50;;;;;;;;;;;24.80;50.00;;;;;;1641765;71;751;-55
2023/07/03 02:32:52;;;;;;;;;;;24.80;49.90;;;;;;1641998;71;668;-58
2023/07/03 02:34:54;;;;;;;;;;;24.80;50.00;;;;;;1636548;71;739;-55
2023/07/03 02:36:58;;;;;;;;;;;24.70;50.20;;;;;;1632647;71;1488;-55
2023/07/03 02:39:01;;;;;;;;;;;24.80;50.00;;;;;;1631746;71;1662;-56
2023/07/03 02:41:03;;;;;;;;;;;24.80;49.90;;;;;;1615270;71;766;-59
2023/07/03 02:43:05;;;;;;;;;;;24.80;49.90;;;;;;1626505;71;657;-56
2023/07/03 02:45:07;;;;;;;;;;;24.70;50.10;;;;;;1618982;71;715;-59
2023/07/03 02:47:09;;;;;;;;;;;24.80;50.00;;;;;;1625265;71;768;-57
2023/07/03 02:49:11;;;;;;;;;;;24.80;50.00;;;;;;1619095;71;1943;-57
2023/07/03 02:51:13;;;;;;;;;;;24.80;49.90;;;;;;1637684;71;1666;-58
2023/07/03 02:53:14;;;;;;;;;;;24.80;50.00;;;;;;1643992;71;813;-59
2023/07/03 02:55:16;;;;;;;;;;;24.80;49.90;;;;;;1623902;71;769;-60
2023/07/03 02:57:18;;;;;;;;;;;24.80;49.90;;;;;;1645588;71;782;-60
2023/07/03 02:59:21;;;;;;;;;;;24.80;50.00;;;;;;1633852;71;1128;-59
2023/07/03 03:01:23;;;;;;;;;;;24.80;49.80;;;;;;1626515;71;794;-59
2023/07/03 03:03:25;;;;;;;;;;;24.80;49.80;;;;;;1639125;71;711;-60
2023/07/03 03:05:27;;;;;;;;;;;24.80;49.90;;;;;;1629658;71;1648;-58
2023/07/03 03:07:29;;;;;;;;;;;24.90;49.90;;;;;;1629777;71;628;-57
2023/07/03 03:09:31;;;;;;;;;;;24.80;49.70;;;;;;1642483;71;1177;-57
2023/07/03 03:11:33;;;;;;;;;;;24.90;49.70;;;;;;1640224;71;721;-57
2023/07/03 03:13:35;;;;;;;;;;;24.90;49.60;;;;;;1649078;71;706;-56
2023/07/03 03:15:37;;;;;;;;;;;24.90;49.70;;;;;;1646457;71;792;-58
2023/07/03 03:17:39;;;;;;;;;;;24.90;49.80;;;;;;1634863;71;691;-58
2023/07/03 03:19:41;;;;;;;;;;;24.80;50.00;;;;;;1647017;70;1402;-58
2023/07/03 03:21:49;;;;;;;;;;;24.80;50.00;;;;;;1621401;71;760;-58
2023/07/03 03:23:59;;;;;;;;;;;24.80;50.00;;;;;;1625765;71;599;-58
2023/07/03 03:26:07;;;;;;;;;;;24.90;50.10;;;;;;1630444;71;1033;-59
2023/07/03 03:28:17;;;;;;;;;;;24.80;50.00;;;;;;1636506;71;1920;-58
2023/07/03 03:30:24;;;;;;;;;;;24.80;50.30;;;;;;1634419;71;1628;-58
2023/07/03 03:32:33;;;;;;;;;;;24.80;50.20;;;;;;1639066;71;1524;-56
2023/07/03 03:34:47;;;;;;;;;;;24.70;50.30;;;;;;1632617;71;1688;-59
2023/07/03 03:36:52;;;;;;;;;;;24.70;50.30;;;;;;1622390;71;1244;-59
2023/07/03 03:39:08;;;;;;;;;;;24.70;50.50;;;;;;1633059;71;1118;-58
2023/07/03 03:41:21;;;;;;;;;;;24.70;50.40;;;;;;1617480;71;572;-60
2023/07/03 03:43:28;;;;;;;;;;;24.80;50.40;;;;;;1625594;71;1531;-58
2023/07/03 03:45:30;;;;;;;;;;;24.80;50.40;;;;;;1626198;71;896;-60
2023/07/03 03:47:32;;;;;;;;;;;24.70;50.50;;;;;;1629622;71;1580;-59
2023/07/03 03:49:34;;;;;;;;;;;24.70;50.30;;;;;;1630993;71;1937;-59
2023/07/03 03:51:36;;;;;;;;;;;24.70;50.50;;;;;;1625883;71;716;-62
2023/07/03 03:53:39;;;;;;;;;;;24.70;50.50;;;;;;1628871;71;778;-62
2023/07/03 03:55:40;;;;;;;;;;;24.80;50.30;;;;;;1632417;71;802;-59
2023/07/03 03:57:42;;;;;;;;;;;24.80;50.40;;;;;;1616017;71;718;-59
2023/07/03 03:59:44;;;;;;;;;;;24.80;50.30;;;;;;1613457;71;1142;-57
2023/07/03 04:01:46;;;;;;;;;;;24.80;50.20;;;;;;1632086;71;1513;-57
2023/07/03 04:03:55;;;;;;;;;;;24.80;50.20;;;;;;1630970;71;615;-59
2023/07/03 04:06:06;;;;;;;;;;;24.80;50.40;;;;;;1634943;71;699;-58
2023/07/03 04:08:15;;;;;;;;;;;24.80;49.70;;;;;;1620466;71;1929;-60
2023/07/03 04:10:15;;;;;;;;;;;24.80;48.50;;;;;;1612713;71;1527;-57
2023/07/03 04:12:17;;;;;;;;;;;24.70;49.10;;;;;;1626492;71;757;-58
2023/07/03 04:14:30;;;;;;;;;;;24.80;49.20;;;;;;1643254;71;1500;-57
2023/07/03 04:16:37;;;;;;;;;;;24.70;49.40;;;;;;1627235;71;1695;-58
2023/07/03 04:18:47;;;;;;;;;;;24.70;49.60;;;;;;1626819;70;1974;-58
2023/07/03 04:20:49;;;;;;;;;;;24.70;49.40;;;;;;1624950;71;690;-59
2023/07/03 04:22:51;;;;;;;;;;;24.70;49.40;;;;;;1638585;71;711;-56
2023/07/03 04:24:53;;;;;;;;;;;24.70;49.60;;;;;;1622997;71;795;-56
2023/07/03 04:26:55;;;;;;;;;;;24.70;49.70;;;;;;1627220;71;764;-58
2023/07/03 04:28:58;;;;;;;;;;;24.70;49.70;;;;;;1632158;71;1930;-58
2023/07/03 04:30:59;;;;;;;;;;;24.70;49.70;;;;;;1632323;70;758;-55
2023/07/03 04:33:01;;;;;;;;;;;24.70;49.90;;;;;;1633229;71;806;-57
2023/07/03 04:35:04;;;;;;;;;;;24.70;49.90;;;;;;1615261;71;800;-57
2023/07/03 04:37:06;;;;;;;;;;;24.70;50.10;;;;;;1625217;71;681;-56
2023/07/03 04:39:08;;;;;;;;;;;24.70;50.00;;;;;;1625551;71;1092;-56
2023/07/03 04:41:10;;;;;;;;;;;24.80;50.00;;;;;;1630251;71;791;-57
2023/07/03 04:43:12;;;;;;;;;;;24.80;49.80;;;;;;1638824;71;1543;-57
2023/07/03 04:45:15;;;;;;;;;;;24.80;49.90;;;;;;1628014;71;649;-57
2023/07/03 04:47:17;;;;;;;;;;;24.70;50.00;;;;;;1642410;71;701;-57
2023/07/03 04:49:19;;;;;;;;;;;24.80;49.90;;;;;;1645412;70;1949;-58
2023/07/03 04:51:21;;;;;;;;;;;24.80;49.70;;;;;;1620304;71;856;-59
2023/07/03 04:53:24;;;;;;;;;;;24.80;49.60;;;;;;1638872;71;718;-58
2023/07/03 04:55:26;;;;;;;;;;;24.70;49.60;;;;;;1622057;71;794;-60
2023/07/03 04:57:27;;;;;;;;;;;24.80;49.70;;;;;;1627144;71;1557;-57
2023/07/03 04:59:29;;;;;;;;;;;24.80;49.50;;;;;;1634215;71;1136;-57
2023/07/03 05:01:31;;;;;;;;;;;24.80;49.40;;;;;;1632074;71;767;-57
2023/07/03 05:03:33;;;;;;;;;;;24.90;49.50;;;;;;1625335;71;783;-58
2023/07/03 05:05:35;;;;;;;;;;;24.90;49.40;;;;;;1629522;71;718;-57
2023/07/03 05:07:38;;;;;;;;;;;24.90;49.50;;;;;;1646038;71;702;-56
2023/07/03 05:09:40;;;;;;;;;;;24.80;49.50;;;;;;1612736;71;1936;-57
2023/07/03 05:11:42;;;;;;;;;;;24.80;49.70;;;;;;1633411;71;1519;-57
2023/07/03 05:13:44;;;;;;;;;;;24.80;49.80;;;;;;1631214;71;764;-57
2023/07/03 05:15:46;;;;;;;;;;;24.80;49.70;;;;;;1609540;71;733;-60
2023/07/03 05:17:51;;;;;;;;;;;24.80;49.70;;;;;;1638386;71;741;-57
2023/07/03 05:19:52;;;;;;;;;;;24.80;49.70;;;;;;1623115;71;1066;-58
2023/07/03 05:21:54;;;;;;;;;;;24.90;47.80;;;;;;1619903;71;786;-60
2023/07/03 05:23:56;;;;;;;;;;;25.00;45.80;;;;;;1619902;71;617;-58
2023/07/03 05:25:58;;;;;;;;;;;24.90;45.00;;;;;;1651978;71;1528;-59
2023/07/03 05:28:00;;;;;;;;;;;24.90;44.40;;;;;;1626764;70;1129;-59
2023/07/03 05:30:03;;;;;;;;;;;25.00;44.30;;;;;;1619497;71;1936;-61
2023/07/03 05:32:05;;;;;;;;;;;24.90;44.70;;;;;;1626963;71;696;-59
2023/07/03 05:34:07;;;;;;;;;;;25.00;44.20;;;;;;1637217;71;921;-58
2023/07/03 05:36:09;;;;;;;;;;;25.10;43.40;;;;;;1631472;71;785;-58
2023/07/03 05:38:11;;;;;;;;;;;25.10;43.10;;;;;;1644529;70;1120;-59
2023/07/03 05:40:14;;;;;;;;;;;25.20;42.70;;;;;;1646820;71;1535;-58
2023/07/03 05:42:17;;;;;;;;;;;25.20;42.70;;;;;;1618202;71;688;-59
2023/07/03 05:44:19;;;;;;;;;;;25.20;42.90;;;;;;1637206;71;805;-60
2023/07/03 05:46:20;;;;;;;;;;;25.20;42.90;;;;;;1620418;71;732;-58
2023/07/03 05:48:23;;;;;;;;;;;25.20;42.60;;;;;;1638760;71;1256;-60
2023/07/03 05:50:25;;;;;;;;;;;25.20;42.70;;;;;;1628284;71;1926;-58
2023/07/03 05:52:27;;;;;;;;;;;25.20;42.50;;;;;;1626305;71;723;-58
2023/07/03 05:54:29;;;;;;;;;;;25.10;42.60;;;;;;1643234;71;1637;-59
2023/07/03 05:56:31;;;;;;;;;;;25.20;42.30;;;;;;1615758;71;858;-57
2023/07/03 05:58:32;;;;;;;;;;;25.20;42.00;;;;;;1629069;71;1117;-59
2023/07/03 06:00:34;;;;;;;;;;;25.20;41.90;;;;;;1620623;71;721;-59
2023/07/03 06:02:37;;;;;;;;;;;25.30;41.80;;;;;;1624036;71;801;-61
2023/07/03 06:04:39;;;;;;;;;;;25.40;41.50;;;;;;1626300;71;698;-57
2023/07/03 06:06:41;;;;;;;;;;;25.30;41.20;;;;;;1635815;71;748;-60
2023/07/03 06:08:42;;;;;;;;;;;25.40;41.30;;;;;;1638624;70;1949;-60
2023/07/03 06:10:45;;;;;;;;;;;25.40;41.50;;;;;;1635252;71;690;-58
2023/07/03 06:12:47;;;;;;;;;;;25.40;41.50;;;;;;1623471;71;675;-58
2023/07/03 06:14:49;;;;;;;;;;;25.50;41.30;;;;;;1647716;71;684;-58
2023/07/03 06:16:51;;;;;;;;;;;25.40;41.20;;;;;;1644203;71;627;-58
2023/07/03 06:18:53;;;;;;;;;;;25.40;41.30;;;;;;1633761;71;1142;-60
2023/07/03 06:20:54;;;;;;;;;;;25.40;41.40;;;;;;1632281;71;1537;-59
2023/07/03 06:22:56;;;;;;;;;;;25.40;41.40;;;;;;1628017;71;779;-57
2023/07/03 06:24:58;;;;;;;;;;;25.40;41.40;;;;;;1638496;71;720;-58
2023/07/03 06:27:00;;;;;;;;;;;25.30;41.60;;;;;;1629182;71;732;-61
2023/07/03 06:29:02;;;;;;;;;;;25.20;41.70;;;;;;1614550;71;1932;-58
2023/07/03 06:31:04;;;;;;;;;;;25.20;41.80;;;;;;1623150;71;716;-57
2023/07/03 06:33:06;;;;;;;;;;;25.20;41.70;;;;;;1633001;71;724;-59
2023/07/03 06:35:08;;;;;;;;;;;25.10;41.50;;;;;;1624497;71;1542;-58
2023/07/03 06:37:10;;;;;;;;;;;25.10;41.70;;;;;;1627426;71;746;-58
2023/07/03 06:39:12;;;;;;;;;;;25.10;41.90;;;;;;1630036;70;1124;-58
2023/07/03 06:41:14;;;;;;;;;;;25.00;42.10;;;;;;1623781;71;760;-58
2023/07/03 06:43:16;;;;;;;;;;;25.00;41.90;;;;;;1620868;71;769;-60
2023/07/03 06:45:17;;;;;;;;;;;25.00;42.20;;;;;;1633865;71;776;-60
2023/07/03 06:47:19;;;;;;;;;;;25.10;42.00;;;;;;1630090;71;805;-57
2023/07/03 06:49:24;;;;;;;;;;;25.20;41.40;;;;;;1632909;71;1923;-60
2023/07/03 06:51:25;;;;;;;;;;;25.20;41.10;;;;;;1617741;71;1751;-58
2023/07/03 06:53:27;;;;;;;;;;;25.20;40.70;;;;;;1634047;71;773;-58
2023/07/03 06:55:28;;;;;;;;;;;25.30;40.70;;;;;;1639337;71;722;-57
2023/07/03 06:57:30;;;;;;;;;;;25.30;40.30;;;;;;1633739;71;799;-59
2023/07/03 06:59:32;;;;;;;;;;;25.20;40.40;;;;;;1634452;70;1147;-58
2023/07/03 07:01:34;;;;;;;;;;;25.20;40.00;;;;;;1617891;71;830;-60
2023/07/03 07:03:36;;;;;;;;;;;25.20;40.00;;;;;;1623428;71;1295;-60
2023/07/03 07:05:38;;;;;;;;;;;25.20;39.90;;;;;;1627856;71;692;-59
2023/07/03 07:07:40;;;;;;;;;;;25.20;39.80;;;;;;1635938;71;777;-58
2023/07/03 07:09:42;;;;;;;;;;;25.10;39.70;;;;;;1637559;70;1943;-57
2023/07/03 07:11:46;;;;;;;;;;;25.10;39.50;;;;;;1641527;71;714;-59
2023/07/03 07:13:48;;;;;;;;;;;25.00;39.60;;;;;;1637458;71;1765;-58
2023/07/03 07:15:50;;;;;;;;;;;25.00;39.70;;;;;;1628134;71;737;-57
2023/07/03 07:17:51;;;;;;;;;;;25.10;39.60;;;;;;1629162;71;1484;-58
2023/07/03 07:19:53;;;;;;;;;;;25.10;39.40;;;;;;1638463;70;1117;-60
2023/07/03 07:21:55;;;;;;;;;;;25.10;39.20;;;;;;1627129;71;776;-59
2023/07/03 07:23:58;;;;;;;;;;;25.10;39.10;;;;;;1637246;71;720;-57
2023/07/03 07:26:00;;;;;;;;;;;25.10;38.50;;;;;;1642910;71;708;-56
2023/07/03 07:28:02;;;;;;;;;;;25.10;38.40;;;;;;1641126;71;1126;-61
2023/07/03 07:30:04;;;;;;;;;;;25.10;38.70;;;;;;1629725;71;1930;-58
2023/07/03 07:32:08;;;;;;;;;;;25.00;38.60;;;;;;1632235;71;1535;-57
2023/07/03 07:34:10;;;;;;;;;;;25.00;38.60;;;;;;1629714;71;679;-58
2023/07/03 07:36:12;;;;;;;;;;;25.00;38.40;;;;;;1632852;71;645;-58
2023/07/03 07:38:14;;;;;;;;;;;24.80;38.40;;;;;;1648005;70;1135;-57
2023/07/03 07:40:16;;;;;;;;;;;24.90;38.10;;;;;;1646010;71;782;-58
2023/07/03 07:42:18;;;;;;;;;;;24.90;37.80;;;;;;1630536;71;771;-61
2023/07/03 07:44:20;;;;;;;;;;;24.80;38.00;;;;;;1617293;71;882;-57
2023/07/03 07:46:25;;;;;;;;;;;24.80;37.80;;;;;;1616011;71;1521;-61
2023/07/03 07:48:26;;;;;;;;;;;24.80;37.50;;;;;;1644718;70;1696;-58
2023/07/03 07:50:29;;;;;;;;;;;24.80;37.20;;;;;;1622852;71;1932;-59
2023/07/03 07:52:30;;;;;;;;;;;24.70;36.90;;;;;;1628382;71;799;-57
2023/07/03 07:54:32;;;;;;;;;;;24.80;37.30;;;;;;1634192;71;740;-58
2023/07/03 07:56:34;;;;;;;;;;;24.70;37.30;;;;;;1636823;71;635;-57
2023/07/03 07:58:36;;;;;;;;;;;24.60;37.50;;;;;;1623292;71;1161;-58
2023/07/03 08:00:40;;;;;;;;;;;24.60;37.80;;;;;;1630286;71;1504;-57
2023/07/03 08:02:41;;;;;;;;;;;24.60;38.00;;;;;;1634327;71;692;-58
2023/07/03 08:04:44;;;;;;;;;;;24.60;37.50;;;;;;1636142;71;588;-58
2023/07/03 08:06:46;;;;;;;;;;;24.50;37.80;;;;;;1649060;71;728;-58
2023/07/03 08:08:47;;;;;;;;;;;24.50;37.90;;;;;;1624729;71;1134;-58
2023/07/03 08:10:54;;;;;;;;;;;24.50;38.10;;;;;;1628252;71;1940;-58
2023/07/03 08:12:55;;;;;;;;;;;24.50;38.30;;;;;;1630466;71;1797;-57
2023/07/03 08:14:57;;;;;;;;;;;24.50;38.50;;;;;;1616877;71;1487;-58
2023/07/03 08:16:59;;;;;;;;;;;24.50;38.50;;;;;;1618697;71;695;-56
2023/07/03 08:19:01;;;;;;;;;;;24.50;38.70;;;;;;1628217;70;1120;-59
2023/07/03 08:21:03;;;;;;;;;;;24.50;38.50;;;;;;1624061;71;698;-58
2023/07/03 08:23:05;;;;;;;;;;;24.50;38.10;;;;;;1632521;71;588;-58
2023/07/03 08:25:07;;;;;;;;;;;24.70;37.90;;;;;;1628819;71;778;-58
2023/07/03 08:27:09;;;;;;;;;;;24.70;37.60;;;;;;1649075;71;731;-58
2023/07/03 08:29:11;;;;;;;;;;;24.70;37.30;;;;;;1632624;70;1556;-58
2023/07/03 08:31:13;;;;;;;;;;;24.80;37.30;;;;;;1624294;71;1941;-59
2023/07/03 08:33:14;;;;;;;;;;;24.70;37.70;;;;;;1622049;71;786;-57
2023/07/03 08:35:19;;;;;;;;;;;24.60;37.50;;;;;;1630257;71;838;-57
2023/07/03 08:37:21;;;;;;;;;;;24.70;37.50;;;;;;1644941;71;585;-57
2023/07/03 08:39:23;;;;;;;;;;;24.70;37.50;;;;;;1645775;71;1111;-57
2023/07/03 08:41:25;;;;;;;;;;;24.70;37.50;;;;;;1618728;71;767;-57
2023/07/03 08:43:34;;;;;;;;;;;24.60;37.60;;;;;;1609603;71;1731;-58
2023/07/03 08:45:37;;;;;;;;;;;24.70;37.70;;;;;;1641731;71;716;-59
2023/07/03 08:47:39;;;;;;;;;;;24.70;37.50;;;;;;1630132;71;701;-58
2023/07/03 08:49:41;;;;;;;;;;;24.70;37.80;;;;;;1634210;70;1938;-61
2023/07/03 08:51:43;;;;;;;;;;;24.70;37.80;;;;;;1623139;71;773;-60
2023/07/03 08:53:46;;;;;;;;;;;24.70;37.90;;;;;;1647945;71;740;-59
2023/07/03 08:55:52;;;;;;;;;;;24.80;37.60;;;;;;1629251;71;1267;-60
2023/07/03 08:57:54;;;;;;;;;;;24.80;37.80;;;;;;1633262;71;1900;-60
2023/07/03 08:59:56;;;;;;;;;;;24.80;37.70;;;;;;1630761;70;1196;-56
2023/07/03 09:02:03;;;;;;;;;;;24.80;37.80;;;;;;1638987;71;726;-58
2023/07/03 09:04:23;;;;;;;;;;;24.70;37.70;;;;;;1619438;71;756;-57
2023/07/03 09:06:30;;;;;;;;;;;24.60;37.80;;;;;;1628736;71;828;-59
2023/07/03 09:08:36;;;;;;;;;;;24.70;37.60;;;;;;1629897;71;1683;-58
2023/07/03 09:10:42;;;;;;;;;;;24.60;37.30;;;;;;1632544;71;1937;-60
2023/07/03 09:12:46;;;;;;;;;;;24.70;37.60;;;;;;1626589;71;1900;-62
2023/07/03 09:14:49;;;;;;;;;;;24.60;37.40;;;;;;1616468;71;1284;-57
2023/07/03 09:16:51;;;;;;;;;;;24.60;37.60;;;;;;1616643;71;1581;-59
2023/07/03 09:18:55;;;;;;;;;;;24.50;37.60;;;;;;1633135;70;1115;-60
2023/07/03 09:20:57;;;;;;;;;;;24.60;37.60;;;;;;1634920;71;776;-56
2023/07/03 09:23:03;;;;;;;;;;;24.60;37.50;;;;;;1628042;71;775;-57
2023/07/03 09:25:05;;;;;;;;;;;24.60;37.60;;;;;;1642031;71;1513;-59
2023/07/03 09:27:11;;;;;;;;;;;24.70;37.80;;;;;;1639490;71;737;-58
2023/07/03 09:29:13;;;;;;;;;;;24.50;37.80;;;;;;1608240;71;1079;-58
2023/07/03 09:31:15;;;;;;;;;;;24.50;38.20;;;;;;1624830;71;1935;-57
2023/07/03 09:33:18;;;;;;;;;;;24.40;38.00;;;;;;1618915;71;811;-57
2023/07/03 09:35:21;;;;;;;;;;;24.40;38.00;;;;;;1624736;71;851;-59
2023/07/03 09:37:23;;;;;;;;;;;24.40;38.00;;;;;;1636170;71;705;-57
2023/07/03 09:39:25;;;;;;;;;;;24.50;38.00;;;;;;1644510;70;1652;-60
2023/07/03 09:41:29;;;;;;;;;;;24.50;37.90;;;;;;1623028;71;741;-58
2023/07/03 09:43:31;;;;;;;;;;;24.50;37.60;;;;;;1624869;71;708;-58
2023/07/03 09:45:33;;;;;;;;;;;24.50;37.80;;;;;;1612163;71;710;-59
2023/07/03 09:47:35;;;;;;;;;;;24.50;37.90;;;;;;1630213;71;718;-60
2023/07/03 09:49:37;;;;;;;;;;;24.60;37.80;;;;;;1613380;71;1133;-59
2023/07/03 09:51:39;;;;;;;;;;;24.60;37.90;;;;;;1622548;71;1932;-59
2023/07/03 09:53:41;;;;;;;;;;;24.60;37.80;;;;;;1627724;71;1295;-58
2023/07/03 09:55:43;;;;;;;;;;;24.60;37.60;;;;;;1624835;71;1119;-58
2023/07/03 09:57:45;;;;;;;;;;;24.70;37.60;;;;;;1625394;71;1125;-59
2023/07/03 09:59:47;;;;;;;;;;;24.60;37.30;;;;;;1629997;71;1501;-59
2023/07/03 10:01:50;;;;;;;;;;;24.60;37.30;;;;;;1626210;71;1554;-60
2023/07/03 10:03:57;;;;;;;;;;;24.50;37.70;;;;;;1600137;72;1185;-59
2023/07/03 10:06:06;;;;;;;;;;;24.60;37.60;;;;;;1634428;71;1812;-60
2023/07/03 10:08:08;;;;;;;;;;;24.50;37.80;;;;;;1615883;71;1812;-60
2023/07/03 10:10:12;;;;;;;;;;;24.60;37.70;;;;;;1634874;71;1944;-58
2023/07/03 10:12:15;;;;;;;;;;;24.50;37.80;;;;;;1628084;71;1401;-60
2023/07/03 10:14:22;;;;;;;;;;;24.60;37.90;;;;;;1637338;71;1540;-58
2023/07/03 10:16:24;;;;;;;;;;;24.70;38.00;;;;;;1627067;71;1036;-59
2023/07/03 10:18:36;;;;;;;;;;;24.60;38.10;;;;;;1634608;71;1477;-57
2023/07/03 10:20:43;;;;;;;;;;;24.60;38.20;;;;;;1627969;71;1477;-58
2023/07/03 10:22:45;;;;;;;;;;;24.50;38.10;;;;;;1627450;71;1464;-58
2023/07/03 10:24:47;;;;;;;;;;;24.50;37.90;;;;;;1635587;71;1033;-58
2023/07/03 10:26:50;;;;;;;;;;;24.50;37.90;;;;;;1628082;71;1258;-57
2023/07/03 10:28:53;;;;;;;;;;;24.50;38.00;;;;;;1617375;71;1499;-58
2023/07/03 10:30:59;;;;;;;;;;;24.50;38.00;;;;;;1630956;71;1947;-58
2023/07/03 10:33:03;;;;;;;;;;;24.60;37.90;;;;;;1594624;73;1074;-56
2023/07/03 10:35:09;;;;;;;;;;;24.50;38.00;;;;;;1629205;71;1518;-57
2023/07/03 10:37:11;;;;;;;;;;;24.50;37.90;;;;;;1628563;71;1912;-56
2023/07/03 10:39:15;;;;;;;;;;;24.50;37.90;;;;;;1635474;71;1448;-58
2023/07/03 10:41:19;;;;;;;;;;;24.50;37.80;;;;;;1622850;71;1583;-56
2023/07/03 10:43:21;;;;;;;;;;;24.40;37.70;;;;;;1640847;71;1502;-58
2023/07/03 10:45:23;;;;;;;;;;;24.40;38.10;;;;;;1636269;71;1529;-57
2023/07/03 10:47:38;;;;;;;;;;;24.40;37.90;;;;;;1636242;71;1454;-56
2023/07/03 10:49:47;;;;;;;;;;;24.40;38.10;;;;;;1624157;71;1527;-58
2023/07/03 10:51:52;;;;;;;;;;;24.40;38.10;;;;;;1626157;71;1940;-57
2023/07/03 10:53:55;;;;;;;;;;;24.40;38.00;;;;;;1645002;71;1951;-58
2023/07/03 10:56:05;;;;;;;;;;;24.40;38.10;;;;;;1626148;71;657;-57
2023/07/03 10:58:25;;;;;;;;;;;24.40;38.10;;;;;;1633637;71;1163;-58
2023/07/03 11:00:44;;;;;;;;;;;24.40;38.00;;;;;;1629360;71;761;-58
2023/07/03 11:02:51;;;;;;;;;;;24.40;38.10;;;;;;1628283;71;1508;-56
2023/07/03 11:05:04;;;;;;;;;;;24.40;38.50;;;;;;1627763;71;1693;-59
2023/07/03 11:07:07;;;;;;;;;;;24.40;38.40;;;;;;1612045;71;1879;-57
2023/07/03 11:09:11;;;;;;;;;;;24.40;38.60;;;;;;1641817;70;1162;-58
2023/07/03 11:11:20;;;;;;;;;;;24.40;38.70;;;;;;1632363;71;1930;-57
2023/07/03 11:13:41;;;;;;;;;;;24.40;38.60;;;;;;1622439;71;741;-58
2023/07/03 11:16:02;;;;;;;;;;;24.40;38.70;;;;;;1623079;71;1691;-59
2023/07/03 11:18:22;;;;;;;;;;;24.50;38.60;;;;;;1614604;71;1650;-59
2023/07/03 11:20:26;;;;;;;;;;;24.40;38.60;;;;;;1615418;71;752;-59
2023/07/03 11:22:29;;;;;;;;;;;24.40;38.40;;;;;;1625347;71;854;-56
2023/07/03 11:24:49;;;;;;;;;;;24.50;38.60;;;;;;1638150;71;763;-57
2023/07/03 11:26:55;;;;;;;;;;;24.40;38.50;;;;;;1619954;71;796;-58
2023/07/03 11:28:57;;;;;;;;;;;24.50;38.40;;;;;;1622745;71;1127;-58
2023/07/03 11:31:00;;;;;;;;;;;24.40;38.50;;;;;;1627758;71;1943;-59
2023/07/03 11:33:05;;;;;;;;;;;24.40;38.60;;;;;;1625171;71;1371;-55
2023/07/03 11:35:08;;;;;;;;;;;24.30;38.40;;;;;;1617229;71;1493;-57
2023/07/03 11:37:11;;;;;;;;;;;24.30;38.90;;;;;;1638087;71;686;-58
2023/07/03 11:39:19;;;;;;;;;;;24.40;38.80;;;;;;1570879;71;1216;-60
2023/07/03 11:41:18;;;;;;;;;;;24.40;38.60;;;;;;1642598;71;1628;-58
2023/07/03 11:43:22;;;;;;;;;;;24.50;38.50;;;;;;1641326;71;771;-57
2023/07/03 11:45:27;;;;;;;;;;;24.40;38.50;;;;;;1637389;71;1577;-56
2023/07/03 11:47:29;;;;;;;;;;;24.40;38.60;;;;;;1642869;71;732;-58
2023/07/03 11:49:32;;;;;;;;;;;24.40;38.50;;;;;;1599125;72;1356;-60
2023/07/03 11:51:37;;;;;;;;;;;24.40;38.50;;;;;;1620813;71;1917;-57
2023/07/03 11:53:40;;;;;;;;;;;24.30;38.70;;;;;;1642565;71;720;-56
2023/07/03 11:55:42;;;;;;;;;;;24.40;38.80;;;;;;1641921;71;730;-58
2023/07/03 11:57:45;;;;;;;;;;;24.30;38.60;;;;;;1638269;71;756;-58
2023/07/03 11:59:46;;;;;;;;;;;24.40;38.40;;;;;;1647542;70;1617;-59
2023/07/03 12:01:48;;;;;;;;;;;24.40;38.00;;;;;;1630817;71;722;-57
2023/07/03 12:03:54;;;;;;;;;;;24.30;38.40;;;;;;1625711;71;799;-58
2023/07/03 12:05:57;;;;;;;;;;;24.20;38.30;;;;;;1636433;71;649;-61
2023/07/03 12:07:59;;;;;;;;;;;24.40;38.60;;;;;;1613358;71;1207;-61
2023/07/03 12:10:20;;;;;;;;;;;24.30;38.80;;;;;;1635291;71;704;-58
2023/07/03 12:12:24;;;;;;;;;;;24.40;38.60;;;;;;1619644;71;1941;-59
2023/07/03 12:14:33;;;;;;;;;;;24.40;38.70;;;;;;1621350;71;692;-57
2023/07/03 12:16:35;;;;;;;;;;;24.30;38.70;;;;;;1589133;72;1446;-56